Terminal Aerodrome Forecast
Issued by NWS Northern Indiana

Home | Current Version | Previous Version | Text Only | Print | Product List | Glossary Off
Versions: 1 2 3 4 5 6 7 8 9 10 11 12 13 14 15 16 17 18

632
FTUS43 KIWX 220609 AAA
TAFFWA
TAF AMD
KFWA 220609Z 2206/2306 06010KT P6SM SCT009 OVC015
      TEMPO 2206/2209 OVC009
     FM220900 07012KT P6SM VCSH OVC020
      TEMPO 2212/2216 6SM -PL
     FM221800 06012KT P6SM OVC015
     FM230100 08011KT P6SM OVC008=

USA.gov is the U.S. government's official web portal to all federal, state and local government web resources and services.